sensor_id;sensor_type;location;lat;lon;timestamp;P1;durP1;ratioP1;P2;durP2;ratioP2
37407;SDS011;24866;50.248;8.252;2023-08-06T00:02:00;6.97;;;3.85;;
37407;SDS011;24866;50.248;8.252;2023-08-06T00:04:32;4.45;;;3.10;;
37407;SDS011;24866;50.248;8.252;2023-08-06T00:07:02;6.50;;;3.70;;
37407;SDS011;24866;50.248;8.252;2023-08-06T00:09:32;5.07;;;3.53;;
37407;SDS011;24866;50.248;8.252;2023-08-06T00:12:03;4.95;;;3.55;;
37407;SDS011;24866;50.248;8.252;2023-08-06T00:14:33;5.05;;;3.72;;
37407;SDS011;24866;50.248;8.252;2023-08-06T00:17:03;7.60;;;4.15;;
37407;SDS011;24866;50.248;8.252;2023-08-06T00:19:34;4.97;;;3.60;;
37407;SDS011;24866;50.248;8.252;2023-08-06T00:22:04;5.05;;;3.72;;
37407;SDS011;24866;50.248;8.252;2023-08-06T00:24:34;6.75;;;4.38;;
37407;SDS011;24866;50.248;8.252;2023-08-06T00:27:04;7.25;;;3.67;;
37407;SDS011;24866;50.248;8.252;2023-08-06T00:29:34;6.47;;;4.22;;
37407;SDS011;24866;50.248;8.252;2023-08-06T00:32:04;5.30;;;3.92;;
37407;SDS011;24866;50.248;8.252;2023-08-06T00:34:36;6.35;;;3.85;;
37407;SDS011;24866;50.248;8.252;2023-08-06T00:37:05;4.95;;;3.90;;
37407;SDS011;24866;50.248;8.252;2023-08-06T00:39:35;4.47;;;3.22;;
37407;SDS011;24866;50.248;8.252;2023-08-06T00:42:05;6.15;;;3.70;;
37407;SDS011;24866;50.248;8.252;2023-08-06T00:44:35;5.65;;;3.28;;
37407;SDS011;24866;50.248;8.252;2023-08-06T00:47:05;4.97;;;3.28;;
37407;SDS011;24866;50.248;8.252;2023-08-06T00:49:38;4.65;;;3.20;;
37407;SDS011;24866;50.248;8.252;2023-08-06T00:52:08;7.95;;;3.78;;
37407;SDS011;24866;50.248;8.252;2023-08-06T00:54:38;5.70;;;3.42;;
37407;SDS011;24866;50.248;8.252;2023-08-06T00:57:08;5.03;;;3.40;;
37407;SDS011;24866;50.248;8.252;2023-08-06T00:59:38;4.63;;;3.17;;
37407;SDS011;24866;50.248;8.252;2023-08-06T01:02:08;5.85;;;3.72;;
37407;SDS011;24866;50.248;8.252;2023-08-06T01:04:40;6.30;;;3.85;;
37407;SDS011;24866;50.248;8.252;2023-08-06T01:07:14;6.00;;;3.22;;
37407;SDS011;24866;50.248;8.252;2023-08-06T01:09:57;6.97;;;3.45;;
37407;SDS011;24866;50.248;8.252;2023-08-06T01:12:34;5.57;;;3.33;;
37407;SDS011;24866;50.248;8.252;2023-08-06T01:15:15;5.35;;;3.30;;
37407;SDS011;24866;50.248;8.252;2023-08-06T01:17:49;7.10;;;3.03;;
37407;SDS011;24866;50.248;8.252;2023-08-06T01:20:21;5.57;;;2.80;;
37407;SDS011;24866;50.248;8.252;2023-08-06T01:22:52;6.22;;;2.85;;
37407;SDS011;24866;50.248;8.252;2023-08-06T01:25:22;5.05;;;3.25;;
37407;SDS011;24866;50.248;8.252;2023-08-06T01:28:00;4.32;;;2.67;;
37407;SDS011;24866;50.248;8.252;2023-08-06T01:30:44;7.20;;;2.72;;
37407;SDS011;24866;50.248;8.252;2023-08-06T01:33:16;4.45;;;3.10;;
37407;SDS011;24866;50.248;8.252;2023-08-06T01:35:50;3.75;;;3.10;;
37407;SDS011;24866;50.248;8.252;2023-08-06T01:38:24;5.25;;;3.25;;
37407;SDS011;24866;50.248;8.252;2023-08-06T01:40:56;4.13;;;2.70;;
37407;SDS011;24866;50.248;8.252;2023-08-06T01:43:25;6.32;;;2.75;;
37407;SDS011;24866;50.248;8.252;2023-08-06T01:45:55;4.75;;;2.97;;
37407;SDS011;24866;50.248;8.252;2023-08-06T01:48:25;6.93;;;2.80;;
37407;SDS011;24866;50.248;8.252;2023-08-06T01:50:55;5.20;;;2.80;;
37407;SDS011;24866;50.248;8.252;2023-08-06T01:53:26;3.70;;;2.70;;
37407;SDS011;24866;50.248;8.252;2023-08-06T01:55:56;5.97;;;2.97;;
37407;SDS011;24866;50.248;8.252;2023-08-06T01:58:26;5.00;;;3.10;;
37407;SDS011;24866;50.248;8.252;2023-08-06T02:00:55;6.03;;;3.38;;
37407;SDS011;24866;50.248;8.252;2023-08-06T02:03:25;5.22;;;3.55;;
37407;SDS011;24866;50.248;8.252;2023-08-06T02:05:55;4.53;;;3.70;;
37407;SDS011;24866;50.248;8.252;2023-08-06T02:08:26;8.35;;;3.28;;
37407;SDS011;24866;50.248;8.252;2023-08-06T02:10:56;5.75;;;3.60;;
37407;SDS011;24866;50.248;8.252;2023-08-06T02:13:27;5.30;;;3.58;;
37407;SDS011;24866;50.248;8.252;2023-08-06T02:15:57;7.00;;;3.58;;
37407;SDS011;24866;50.248;8.252;2023-08-06T02:18:26;6.95;;;4.32;;
37407;SDS011;24866;50.248;8.252;2023-08-06T02:20:57;7.78;;;4.22;;
37407;SDS011;24866;50.248;8.252;2023-08-06T02:23:29;5.35;;;3.38;;
37407;SDS011;24866;50.248;8.252;2023-08-06T02:25:59;5.20;;;3.35;;
37407;SDS011;24866;50.248;8.252;2023-08-06T02:28:30;5.18;;;3.38;;
37407;SDS011;24866;50.248;8.252;2023-08-06T02:31:00;5.97;;;3.58;;
37407;SDS011;24866;50.248;8.252;2023-08-06T02:33:30;7.55;;;2.65;;
37407;SDS011;24866;50.248;8.252;2023-08-06T02:35:59;4.45;;;2.83;;
37407;SDS011;24866;50.248;8.252;2023-08-06T02:38:32;5.15;;;2.97;;
37407;SDS011;24866;50.248;8.252;2023-08-06T02:41:02;5.00;;;2.90;;
37407;SDS011;24866;50.248;8.252;2023-08-06T02:43:32;4.00;;;2.58;;
37407;SDS011;24866;50.248;8.252;2023-08-06T02:46:02;7.32;;;2.70;;
37407;SDS011;24866;50.248;8.252;2023-08-06T02:48:32;5.30;;;2.45;;
37407;SDS011;24866;50.248;8.252;2023-08-06T02:51:02;5.22;;;2.67;;
37407;SDS011;24866;50.248;8.252;2023-08-06T02:53:33;4.80;;;2.65;;
37407;SDS011;24866;50.248;8.252;2023-08-06T02:56:03;4.60;;;2.63;;
37407;SDS011;24866;50.248;8.252;2023-08-06T02:58:33;6.88;;;3.13;;
37407;SDS011;24866;50.248;8.252;2023-08-06T03:01:03;6.63;;;3.08;;
37407;SDS011;24866;50.248;8.252;2023-08-06T03:03:35;7.93;;;3.38;;
37407;SDS011;24866;50.248;8.252;2023-08-06T03:06:04;5.70;;;3.15;;
37407;SDS011;24866;50.248;8.252;2023-08-06T03:08:36;5.50;;;3.58;;
37407;SDS011;24866;50.248;8.252;2023-08-06T03:11:05;6.50;;;3.30;;
37407;SDS011;24866;50.248;8.252;2023-08-06T03:13:35;6.10;;;3.63;;
37407;SDS011;24866;50.248;8.252;2023-08-06T03:16:05;5.38;;;3.38;;
37407;SDS011;24866;50.248;8.252;2023-08-06T03:18:35;5.38;;;3.45;;
37407;SDS011;24866;50.248;8.252;2023-08-06T03:21:04;6.90;;;4.05;;
37407;SDS011;24866;50.248;8.252;2023-08-06T03:23:36;6.97;;;4.40;;
37407;SDS011;24866;50.248;8.252;2023-08-06T03:26:05;7.90;;;4.45;;
37407;SDS011;24866;50.248;8.252;2023-08-06T03:28:35;18.67;;;5.93;;
37407;SDS011;24866;50.248;8.252;2023-08-06T03:31:05;8.95;;;4.82;;
37407;SDS011;24866;50.248;8.252;2023-08-06T03:33:35;7.38;;;4.55;;
37407;SDS011;24866;50.248;8.252;2023-08-06T03:36:05;8.30;;;5.38;;
37407;SDS011;24866;50.248;8.252;2023-08-06T03:38:36;10.05;;;5.13;;
37407;SDS011;24866;50.248;8.252;2023-08-06T03:41:06;6.93;;;4.70;;
37407;SDS011;24866;50.248;8.252;2023-08-06T03:43:36;7.97;;;5.47;;
37407;SDS011;24866;50.248;8.252;2023-08-06T03:46:05;7.18;;;5.43;;
37407;SDS011;24866;50.248;8.252;2023-08-06T03:48:35;8.43;;;5.88;;
37407;SDS011;24866;50.248;8.252;2023-08-06T03:51:05;7.18;;;5.38;;
37407;SDS011;24866;50.248;8.252;2023-08-06T03:53:36;8.43;;;5.47;;
37407;SDS011;24866;50.248;8.252;2023-08-06T03:56:06;11.07;;;5.20;;
37407;SDS011;24866;50.248;8.252;2023-08-06T03:58:36;8.68;;;4.07;;
37407;SDS011;24866;50.248;8.252;2023-08-06T04:01:05;7.35;;;3.20;;
37407;SDS011;24866;50.248;8.252;2023-08-06T04:03:35;4.90;;;3.08;;
37407;SDS011;24866;50.248;8.252;2023-08-06T04:06:05;3.30;;;2.53;;
37407;SDS011;24866;50.248;8.252;2023-08-06T04:08:37;5.10;;;2.90;;
37407;SDS011;24866;50.248;8.252;2023-08-06T04:11:07;6.35;;;3.30;;
37407;SDS011;24866;50.248;8.252;2023-08-06T04:13:37;6.15;;;3.03;;
37407;SDS011;24866;50.248;8.252;2023-08-06T04:16:07;7.00;;;3.15;;
37407;SDS011;24866;50.248;8.252;2023-08-06T04:18:37;5.47;;;2.90;;
37407;SDS011;24866;50.248;8.252;2023-08-06T04:21:06;8.02;;;2.70;;
37407;SDS011;24866;50.248;8.252;2023-08-06T04:23:37;9.48;;;2.80;;
37407;SDS011;24866;50.248;8.252;2023-08-06T04:26:07;5.97;;;2.83;;
37407;SDS011;24866;50.248;8.252;2023-08-06T04:28:37;5.43;;;3.53;;
37407;SDS011;24866;50.248;8.252;2023-08-06T04:31:07;6.20;;;2.80;;
37407;SDS011;24866;50.248;8.252;2023-08-06T04:33:37;6.97;;;2.67;;
37407;SDS011;24866;50.248;8.252;2023-08-06T04:36:06;6.57;;;2.78;;
37407;SDS011;24866;50.248;8.252;2023-08-06T04:38:38;6.75;;;2.88;;
37407;SDS011;24866;50.248;8.252;2023-08-06T04:43:39;6.38;;;2.60;;
37407;SDS011;24866;50.248;8.252;2023-08-06T04:46:08;6.40;;;2.83;;
37407;SDS011;24866;50.248;8.252;2023-08-06T04:48:38;7.00;;;2.95;;
37407;SDS011;24866;50.248;8.252;2023-08-06T04:51:08;4.68;;;2.80;;
37407;SDS011;24866;50.248;8.252;2023-08-06T04:53:40;5.60;;;2.30;;
37407;SDS011;24866;50.248;8.252;2023-08-06T04:56:09;7.03;;;2.70;;
37407;SDS011;24866;50.248;8.252;2023-08-06T04:58:40;4.20;;;2.13;;
37407;SDS011;24866;50.248;8.252;2023-08-06T05:01:10;4.32;;;2.08;;
37407;SDS011;24866;50.248;8.252;2023-08-06T05:03:40;6.13;;;2.30;;
37407;SDS011;24866;50.248;8.252;2023-08-06T05:06:10;3.05;;;1.92;;
37407;SDS011;24866;50.248;8.252;2023-08-06T05:08:41;4.93;;;2.28;;
37407;SDS011;24866;50.248;8.252;2023-08-06T05:11:11;4.50;;;2.63;;
37407;SDS011;24866;50.248;8.252;2023-08-06T05:13:41;4.95;;;2.33;;
37407;SDS011;24866;50.248;8.252;2023-08-06T05:16:10;4.68;;;2.55;;
37407;SDS011;24866;50.248;8.252;2023-08-06T05:18:40;5.72;;;2.53;;
37407;SDS011;24866;50.248;8.252;2023-08-06T05:21:10;7.05;;;2.25;;
37407;SDS011;24866;50.248;8.252;2023-08-06T05:23:41;2.72;;;1.95;;
37407;SDS011;24866;50.248;8.252;2023-08-06T05:26:11;2.85;;;1.92;;
37407;SDS011;24866;50.248;8.252;2023-08-06T05:28:42;4.60;;;2.25;;
37407;SDS011;24866;50.248;8.252;2023-08-06T05:31:12;2.35;;;1.17;;
37407;SDS011;24866;50.248;8.252;2023-08-06T05:33:42;2.65;;;1.13;;
37407;SDS011;24866;50.248;8.252;2023-08-06T05:36:12;2.50;;;1.10;;
37407;SDS011;24866;50.248;8.252;2023-08-06T05:38:43;3.83;;;1.13;;
37407;SDS011;24866;50.248;8.252;2023-08-06T05:41:13;2.08;;;1.00;;
37407;SDS011;24866;50.248;8.252;2023-08-06T05:43:43;1.40;;;0.80;;
37407;SDS011;24866;50.248;8.252;2023-08-06T05:46:13;1.50;;;0.68;;
37407;SDS011;24866;50.248;8.252;2023-08-06T05:48:42;3.22;;;1.85;;
37407;SDS011;24866;50.248;8.252;2023-08-06T05:51:12;2.85;;;0.60;;
37407;SDS011;24866;50.248;8.252;2023-08-06T05:53:45;1.25;;;0.57;;
37407;SDS011;24866;50.248;8.252;2023-08-06T05:56:17;1.00;;;0.60;;
37407;SDS011;24866;50.248;8.252;2023-08-06T05:58:47;0.80;;;0.52;;
37407;SDS011;24866;50.248;8.252;2023-08-06T06:01:18;0.88;;;0.50;;
37407;SDS011;24866;50.248;8.252;2023-08-06T06:03:48;1.00;;;0.40;;
37407;SDS011;24866;50.248;8.252;2023-08-06T06:06:18;0.60;;;0.50;;
37407;SDS011;24866;50.248;8.252;2023-08-06T06:08:49;0.88;;;0.30;;
37407;SDS011;24866;50.248;8.252;2023-08-06T06:11:19;1.52;;;0.50;;
37407;SDS011;24866;50.248;8.252;2023-08-06T06:13:50;1.67;;;0.50;;
37407;SDS011;24866;50.248;8.252;2023-08-06T06:16:20;1.55;;;0.50;;
37407;SDS011;24866;50.248;8.252;2023-08-06T06:18:50;0.50;;;0.30;;
37407;SDS011;24866;50.248;8.252;2023-08-06T06:21:20;0.50;;;0.30;;
37407;SDS011;24866;50.248;8.252;2023-08-06T06:23:51;0.88;;;0.30;;
37407;SDS011;24866;50.248;8.252;2023-08-06T06:26:21;0.70;;;0.30;;
37407;SDS011;24866;50.248;8.252;2023-08-06T06:28:50;1.17;;;0.30;;
37407;SDS011;24866;50.248;8.252;2023-08-06T06:31:20;1.20;;;0.30;;
37407;SDS011;24866;50.248;8.252;2023-08-06T06:33:50;0.30;;;0.25;;
37407;SDS011;24866;50.248;8.252;2023-08-06T06:36:21;1.70;;;0.30;;
37407;SDS011;24866;50.248;8.252;2023-08-06T06:38:53;3.03;;;0.28;;
37407;SDS011;24866;50.248;8.252;2023-08-06T06:41:23;0.50;;;0.20;;
37407;SDS011;24866;50.248;8.252;2023-08-06T06:43:54;0.38;;;0.20;;
37407;SDS011;24866;50.248;8.252;2023-08-06T06:46:24;0.50;;;0.20;;
37407;SDS011;24866;50.248;8.252;2023-08-06T06:48:54;0.55;;;0.20;;
37407;SDS011;24866;50.248;8.252;2023-08-06T06:51:24;0.93;;;0.30;;
37407;SDS011;24866;50.248;8.252;2023-08-06T06:53:55;1.40;;;0.32;;
37407;SDS011;24866;50.248;8.252;2023-08-06T06:56:24;0.82;;;0.32;;
37407;SDS011;24866;50.248;8.252;2023-08-06T06:58:54;1.30;;;0.30;;
37407;SDS011;24866;50.248;8.252;2023-08-06T07:01:24;0.47;;;0.10;;
37407;SDS011;24866;50.248;8.252;2023-08-06T07:03:54;1.08;;;0.32;;
37407;SDS011;24866;50.248;8.252;2023-08-06T07:06:25;0.20;;;0.10;;
37407;SDS011;24866;50.248;8.252;2023-08-06T07:08:56;0.10;;;0.10;;
37407;SDS011;24866;50.248;8.252;2023-08-06T07:11:26;1.45;;;0.20;;
37407;SDS011;24866;50.248;8.252;2023-08-06T07:13:56;1.08;;;0.13;;
37407;SDS011;24866;50.248;8.252;2023-08-06T07:16:27;1.30;;;0.10;;
37407;SDS011;24866;50.248;8.252;2023-08-06T07:18:57;0.88;;;0.30;;
37407;SDS011;24866;50.248;8.252;2023-08-06T07:21:27;0.25;;;0.08;;
37407;SDS011;24866;50.248;8.252;2023-08-06T07:23:58;0.47;;;0.10;;
37407;SDS011;24866;50.248;8.252;2023-08-06T07:26:28;0.20;;;0.10;;
37407;SDS011;24866;50.248;8.252;2023-08-06T07:28:58;0.55;;;0.20;;
37407;SDS011;24866;50.248;8.252;2023-08-06T07:31:27;0.30;;;0.10;;
37407;SDS011;24866;50.248;8.252;2023-08-06T07:33:57;0.50;;;0.10;;
37407;SDS011;24866;50.248;8.252;2023-08-06T07:36:27;1.88;;;0.20;;
37407;SDS011;24866;50.248;8.252;2023-08-06T07:38:58;0.45;;;0.20;;
37407;SDS011;24866;50.248;8.252;2023-08-06T07:41:28;1.02;;;0.30;;
37407;SDS011;24866;50.248;8.252;2023-08-06T07:43:58;0.70;;;0.15;;
37407;SDS011;24866;50.248;8.252;2023-08-06T07:46:28;0.82;;;0.40;;
37407;SDS011;24866;50.248;8.252;2023-08-06T07:48:57;0.20;;;0.10;;
37407;SDS011;24866;50.248;8.252;2023-08-06T07:51:27;0.63;;;0.20;;
37407;SDS011;24866;50.248;8.252;2023-08-06T07:53:58;0.80;;;0.20;;
37407;SDS011;24866;50.248;8.252;2023-08-06T07:56:28;1.02;;;0.20;;
37407;SDS011;24866;50.248;8.252;2023-08-06T07:58:58;0.90;;;0.32;;
37407;SDS011;24866;50.248;8.252;2023-08-06T08:01:28;1.33;;;0.20;;
37407;SDS011;24866;50.248;8.252;2023-08-06T08:03:58;0.63;;;0.40;;
37407;SDS011;24866;50.248;8.252;2023-08-06T08:06:28;1.40;;;0.50;;
37407;SDS011;24866;50.248;8.252;2023-08-06T08:08:59;1.08;;;0.17;;
37407;SDS011;24866;50.248;8.252;2023-08-06T08:11:29;1.05;;;0.30;;
37407;SDS011;24866;50.248;8.252;2023-08-06T08:13:58;1.27;;;0.30;;
37407;SDS011;24866;50.248;8.252;2023-08-06T08:16:28;1.45;;;0.30;;
37407;SDS011;24866;50.248;8.252;2023-08-06T08:18:58;0.20;;;0.20;;
37407;SDS011;24866;50.248;8.252;2023-08-06T08:21:28;0.65;;;0.30;;
37407;SDS011;24866;50.248;8.252;2023-08-06T08:23:59;1.20;;;0.30;;
37407;SDS011;24866;50.248;8.252;2023-08-06T08:26:29;2.50;;;0.40;;
37407;SDS011;24866;50.248;8.252;2023-08-06T08:28:59;1.95;;;0.20;;
37407;SDS011;24866;50.248;8.252;2023-08-06T08:31:29;0.30;;;0.20;;
37407;SDS011;24866;50.248;8.252;2023-08-06T08:33:59;1.45;;;0.30;;
37407;SDS011;24866;50.248;8.252;2023-08-06T08:36:29;1.80;;;0.30;;
37407;SDS011;24866;50.248;8.252;2023-08-06T08:39:00;0.60;;;0.20;;
37407;SDS011;24866;50.248;8.252;2023-08-06T08:41:30;0.50;;;0.20;;
37407;SDS011;24866;50.248;8.252;2023-08-06T08:44:00;1.10;;;0.30;;
37407;SDS011;24866;50.248;8.252;2023-08-06T08:46:31;2.00;;;0.30;;
37407;SDS011;24866;50.248;8.252;2023-08-06T08:49:03;1.65;;;0.60;;
37407;SDS011;24866;50.248;8.252;2023-08-06T08:51:33;0.65;;;0.20;;
37407;SDS011;24866;50.248;8.252;2023-08-06T08:54:04;0.75;;;0.30;;
37407;SDS011;24866;50.248;8.252;2023-08-06T08:56:37;6.47;;;0.50;;
37407;SDS011;24866;50.248;8.252;2023-08-06T08:59:07;2.35;;;0.30;;
37407;SDS011;24866;50.248;8.252;2023-08-06T09:01:37;1.85;;;0.38;;
37407;SDS011;24866;50.248;8.252;2023-08-06T09:04:09;3.13;;;0.50;;
37407;SDS011;24866;50.248;8.252;2023-08-06T09:06:41;0.85;;;0.22;;
37407;SDS011;24866;50.248;8.252;2023-08-06T09:09:15;0.85;;;0.20;;
37407;SDS011;24866;50.248;8.252;2023-08-06T09:11:48;0.73;;;0.30;;
37407;SDS011;24866;50.248;8.252;2023-08-06T09:14:18;0.85;;;0.10;;
37407;SDS011;24866;50.248;8.252;2023-08-06T09:16:48;0.82;;;0.20;;
37407;SDS011;24866;50.248;8.252;2023-08-06T09:19:18;1.20;;;0.25;;
37407;SDS011;24866;50.248;8.252;2023-08-06T09:21:50;1.10;;;0.30;;
37407;SDS011;24866;50.248;8.252;2023-08-06T09:24:22;0.20;;;0.10;;
37407;SDS011;24866;50.248;8.252;2023-08-06T09:26:52;1.83;;;0.40;;
37407;SDS011;24866;50.248;8.252;2023-08-06T09:29:22;0.93;;;0.50;;
37407;SDS011;24866;50.248;8.252;2023-08-06T09:31:52;0.90;;;0.28;;
37407;SDS011;24866;50.248;8.252;2023-08-06T09:34:23;0.73;;;0.15;;
37407;SDS011;24866;50.248;8.252;2023-08-06T09:36:53;0.73;;;0.17;;
37407;SDS011;24866;50.248;8.252;2023-08-06T09:39:26;0.77;;;0.20;;
37407;SDS011;24866;50.248;8.252;2023-08-06T09:41:57;0.65;;;0.32;;
37407;SDS011;24866;50.248;8.252;2023-08-06T09:44:29;2.97;;;0.20;;
37407;SDS011;24866;50.248;8.252;2023-08-06T09:47:01;2.05;;;0.30;;
37407;SDS011;24866;50.248;8.252;2023-08-06T09:49:42;0.55;;;0.30;;
37407;SDS011;24866;50.248;8.252;2023-08-06T09:52:13;2.60;;;0.20;;
37407;SDS011;24866;50.248;8.252;2023-08-06T09:54:46;2.78;;;0.30;;
37407;SDS011;24866;50.248;8.252;2023-08-06T09:57:17;0.93;;;0.22;;
37407;SDS011;24866;50.248;8.252;2023-08-06T09:59:47;1.05;;;0.40;;
37407;SDS011;24866;50.248;8.252;2023-08-06T10:02:17;2.22;;;0.30;;
37407;SDS011;24866;50.248;8.252;2023-08-06T10:04:52;0.50;;;0.20;;
37407;SDS011;24866;50.248;8.252;2023-08-06T10:07:24;2.10;;;0.30;;
37407;SDS011;24866;50.248;8.252;2023-08-06T10:09:55;1.75;;;0.30;;
37407;SDS011;24866;50.248;8.252;2023-08-06T10:12:25;0.73;;;0.20;;
37407;SDS011;24866;50.248;8.252;2023-08-06T10:15:01;0.63;;;0.20;;
37407;SDS011;24866;50.248;8.252;2023-08-06T10:17:34;1.42;;;0.25;;
37407;SDS011;24866;50.248;8.252;2023-08-06T10:20:08;1.13;;;0.30;;
37407;SDS011;24866;50.248;8.252;2023-08-06T10:22:42;0.68;;;0.10;;
37407;SDS011;24866;50.248;8.252;2023-08-06T10:25:17;3.17;;;0.30;;
37407;SDS011;24866;50.248;8.252;2023-08-06T10:27:53;0.30;;;0.10;;
37407;SDS011;24866;50.248;8.252;2023-08-06T10:30:24;0.50;;;0.15;;
37407;SDS011;24866;50.248;8.252;2023-08-06T10:32:55;0.32;;;0.13;;
37407;SDS011;24866;50.248;8.252;2023-08-06T10:35:28;0.50;;;0.20;;
37407;SDS011;24866;50.248;8.252;2023-08-06T10:38:02;0.40;;;0.20;;
37407;SDS011;24866;50.248;8.252;2023-08-06T10:40:34;0.90;;;0.20;;
37407;SDS011;24866;50.248;8.252;2023-08-06T10:43:05;1.85;;;0.17;;
37407;SDS011;24866;50.248;8.252;2023-08-06T10:45:38;1.33;;;0.45;;
37407;SDS011;24866;50.248;8.252;2023-08-06T10:48:28;0.63;;;0.32;;
37407;SDS011;24866;50.248;8.252;2023-08-06T10:51:00;0.45;;;0.20;;
37407;SDS011;24866;50.248;8.252;2023-08-06T10:53:30;0.43;;;0.20;;
37407;SDS011;24866;50.248;8.252;2023-08-06T10:56:02;0.60;;;0.28;;
37407;SDS011;24866;50.248;8.252;2023-08-06T10:58:41;0.65;;;0.20;;
37407;SDS011;24866;50.248;8.252;2023-08-06T11:01:11;1.80;;;0.60;;
37407;SDS011;24866;50.248;8.252;2023-08-06T11:03:42;1.38;;;0.40;;
37407;SDS011;24866;50.248;8.252;2023-08-06T11:06:16;2.03;;;0.40;;
37407;SDS011;24866;50.248;8.252;2023-08-06T11:08:48;1.48;;;0.50;;
37407;SDS011;24866;50.248;8.252;2023-08-06T11:11:20;2.65;;;0.50;;
37407;SDS011;24866;50.248;8.252;2023-08-06T11:13:52;1.20;;;0.47;;
37407;SDS011;24866;50.248;8.252;2023-08-06T11:16:22;3.22;;;0.70;;
37407;SDS011;24866;50.248;8.252;2023-08-06T11:18:53;1.15;;;0.45;;
37407;SDS011;24866;50.248;8.252;2023-08-06T11:21:24;4.30;;;0.60;;
37407;SDS011;24866;50.248;8.252;2023-08-06T11:23:55;3.25;;;0.60;;
37407;SDS011;24866;50.248;8.252;2023-08-06T11:26:26;1.27;;;0.20;;
37407;SDS011;24866;50.248;8.252;2023-08-06T11:28:57;3.90;;;0.30;;
37407;SDS011;24866;50.248;8.252;2023-08-06T11:31:27;0.80;;;0.20;;
37407;SDS011;24866;50.248;8.252;2023-08-06T11:33:57;2.03;;;0.17;;
37407;SDS011;24866;50.248;8.252;2023-08-06T11:36:29;0.35;;;0.10;;
37407;SDS011;24866;50.248;8.252;2023-08-06T11:38:59;2.05;;;0.57;;
37407;SDS011;24866;50.248;8.252;2023-08-06T11:41:32;0.52;;;0.20;;
37407;SDS011;24866;50.248;8.252;2023-08-06T11:44:02;0.98;;;0.25;;
37407;SDS011;24866;50.248;8.252;2023-08-06T11:52:08;1.77;;;0.20;;
37407;SDS011;24866;50.248;8.252;2023-08-06T11:54:40;2.25;;;0.30;;
37407;SDS011;24866;50.248;8.252;2023-08-06T11:57:11;1.08;;;0.20;;
37407;SDS011;24866;50.248;8.252;2023-08-06T11:59:41;0.50;;;0.17;;
37407;SDS011;24866;50.248;8.252;2023-08-06T12:02:11;1.50;;;0.30;;
37407;SDS011;24866;50.248;8.252;2023-08-06T12:04:57;2.35;;;0.40;;
37407;SDS011;24866;50.248;8.252;2023-08-06T12:07:31;1.20;;;0.20;;
37407;SDS011;24866;50.248;8.252;2023-08-06T12:10:02;1.45;;;0.35;;
37407;SDS011;24866;50.248;8.252;2023-08-06T12:12:34;0.88;;;0.40;;
37407;SDS011;24866;50.248;8.252;2023-08-06T12:15:05;0.70;;;0.30;;
37407;SDS011;24866;50.248;8.252;2023-08-06T12:17:36;0.98;;;0.30;;
37407;SDS011;24866;50.248;8.252;2023-08-06T12:20:07;0.95;;;0.28;;
37407;SDS011;24866;50.248;8.252;2023-08-06T12:22:38;1.98;;;0.60;;
37407;SDS011;24866;50.248;8.252;2023-08-06T12:25:08;0.75;;;0.40;;
37407;SDS011;24866;50.248;8.252;2023-08-06T12:27:42;2.55;;;0.35;;
37407;SDS011;24866;50.248;8.252;2023-08-06T12:30:13;0.82;;;0.30;;
37407;SDS011;24866;50.248;8.252;2023-08-06T12:32:43;0.70;;;0.20;;
37407;SDS011;24866;50.248;8.252;2023-08-06T12:35:13;1.98;;;0.30;;
37407;SDS011;24866;50.248;8.252;2023-08-06T12:37:43;2.58;;;0.73;;
37407;SDS011;24866;50.248;8.252;2023-08-06T12:40:13;0.88;;;0.47;;
37407;SDS011;24866;50.248;8.252;2023-08-06T12:42:45;0.52;;;0.35;;
37407;SDS011;24866;50.248;8.252;2023-08-06T12:45:15;0.65;;;0.40;;
37407;SDS011;24866;50.248;8.252;2023-08-06T12:47:45;1.63;;;0.32;;
37407;SDS011;24866;50.248;8.252;2023-08-06T12:50:15;1.40;;;0.47;;
37407;SDS011;24866;50.248;8.252;2023-08-06T12:52:46;1.42;;;0.50;;
37407;SDS011;24866;50.248;8.252;2023-08-06T12:55:16;1.05;;;0.20;;
37407;SDS011;24866;50.248;8.252;2023-08-06T12:57:47;0.70;;;0.25;;
37407;SDS011;24866;50.248;8.252;2023-08-06T13:00:17;1.85;;;0.50;;
37407;SDS011;24866;50.248;8.252;2023-08-06T13:02:47;5.72;;;0.35;;
37407;SDS011;24866;50.248;8.252;2023-08-06T13:05:17;0.77;;;0.40;;
37407;SDS011;24866;50.248;8.252;2023-08-06T13:07:47;0.75;;;0.40;;
37407;SDS011;24866;50.248;8.252;2023-08-06T13:10:17;1.95;;;0.40;;
37407;SDS011;24866;50.248;8.252;2023-08-06T13:12:50;1.02;;;0.35;;
37407;SDS011;24866;50.248;8.252;2023-08-06T13:15:20;0.85;;;0.40;;
37407;SDS011;24866;50.248;8.252;2023-08-06T13:17:50;1.38;;;0.20;;
37407;SDS011;24866;50.248;8.252;2023-08-06T13:20:20;3.00;;;0.40;;
37407;SDS011;24866;50.248;8.252;2023-08-06T13:22:51;1.52;;;0.55;;
37407;SDS011;24866;50.248;8.252;2023-08-06T13:25:21;2.03;;;0.40;;
37407;SDS011;24866;50.248;8.252;2023-08-06T13:27:53;1.75;;;0.45;;
37407;SDS011;24866;50.248;8.252;2023-08-06T13:30:23;1.77;;;0.53;;
37407;SDS011;24866;50.248;8.252;2023-08-06T13:32:53;1.45;;;0.68;;
37407;SDS011;24866;50.248;8.252;2023-08-06T13:35:24;0.63;;;0.30;;
37407;SDS011;24866;50.248;8.252;2023-08-06T13:37:54;2.42;;;0.40;;
37407;SDS011;24866;50.248;8.252;2023-08-06T13:40:24;0.70;;;0.30;;
37407;SDS011;24866;50.248;8.252;2023-08-06T13:42:55;1.70;;;0.35;;
37407;SDS011;24866;50.248;8.252;2023-08-06T13:45:25;1.90;;;0.38;;
37407;SDS011;24866;50.248;8.252;2023-08-06T13:47:55;4.60;;;0.47;;
37407;SDS011;24866;50.248;8.252;2023-08-06T13:50:25;2.35;;;0.28;;
37407;SDS011;24866;50.248;8.252;2023-08-06T13:52:56;2.03;;;0.38;;
37407;SDS011;24866;50.248;8.252;2023-08-06T13:55:25;1.13;;;0.30;;
37407;SDS011;24866;50.248;8.252;2023-08-06T13:57:56;1.75;;;0.32;;
37407;SDS011;24866;50.248;8.252;2023-08-06T14:00:26;1.52;;;0.40;;
37407;SDS011;24866;50.248;8.252;2023-08-06T14:02:56;0.95;;;0.60;;
37407;SDS011;24866;50.248;8.252;2023-08-06T14:05:27;4.10;;;0.40;;
37407;SDS011;24866;50.248;8.252;2023-08-06T14:07:56;0.40;;;0.30;;
37407;SDS011;24866;50.248;8.252;2023-08-06T14:10:26;0.57;;;0.30;;
37407;SDS011;24866;50.248;8.252;2023-08-06T14:12:57;0.70;;;0.20;;
37407;SDS011;24866;50.248;8.252;2023-08-06T14:15:27;1.15;;;0.30;;
37407;SDS011;24866;50.248;8.252;2023-08-06T14:17:57;0.93;;;0.30;;
37407;SDS011;24866;50.248;8.252;2023-08-06T14:20:27;3.83;;;0.40;;
37407;SDS011;24866;50.248;8.252;2023-08-06T14:22:57;0.70;;;0.30;;
37407;SDS011;24866;50.248;8.252;2023-08-06T14:25:27;1.55;;;0.30;;
37407;SDS011;24866;50.248;8.252;2023-08-06T14:27:58;1.00;;;0.20;;
37407;SDS011;24866;50.248;8.252;2023-08-06T14:30:28;1.48;;;0.30;;
37407;SDS011;24866;50.248;8.252;2023-08-06T14:32:58;1.88;;;0.30;;
37407;SDS011;24866;50.248;8.252;2023-08-06T14:35:28;1.50;;;0.20;;
37407;SDS011;24866;50.248;8.252;2023-08-06T14:37:58;0.47;;;0.20;;
37407;SDS011;24866;50.248;8.252;2023-08-06T14:40:28;0.77;;;0.28;;
37407;SDS011;24866;50.248;8.252;2023-08-06T14:43:02;0.65;;;0.20;;
37407;SDS011;24866;50.248;8.252;2023-08-06T14:45:37;1.75;;;0.32;;
37407;SDS011;24866;50.248;8.252;2023-08-06T14:48:07;0.32;;;0.30;;
37407;SDS011;24866;50.248;8.252;2023-08-06T14:50:37;1.20;;;0.30;;
37407;SDS011;24866;50.248;8.252;2023-08-06T14:53:07;1.10;;;0.40;;
37407;SDS011;24866;50.248;8.252;2023-08-06T14:55:39;2.50;;;1.10;;
37407;SDS011;24866;50.248;8.252;2023-08-06T14:58:11;0.20;;;0.13;;
37407;SDS011;24866;50.248;8.252;2023-08-06T15:00:41;1.20;;;0.30;;
37407;SDS011;24866;50.248;8.252;2023-08-06T15:03:11;0.80;;;0.40;;
37407;SDS011;24866;50.248;8.252;2023-08-06T15:05:43;1.27;;;0.28;;
37407;SDS011;24866;50.248;8.252;2023-08-06T15:08:13;1.15;;;0.50;;
37407;SDS011;24866;50.248;8.252;2023-08-06T15:10:42;1.85;;;0.47;;
37407;SDS011;24866;50.248;8.252;2023-08-06T15:13:19;0.88;;;0.60;;
37407;SDS011;24866;50.248;8.252;2023-08-06T15:15:50;3.35;;;0.50;;
37407;SDS011;24866;50.248;8.252;2023-08-06T15:18:20;0.60;;;0.35;;